Eyota, Minnesota
Current Conditions -  °F | °C
As of 8:53 PM on Monday 22 Dec 2014 (Local Time) from K9MN Reporting Station
Overcast Overcast  
Wind Chill: 28°   Ceiling: 600
Heat Index: 35°   Visibility: 5mi
Dew Point: 33°   Wind: 8mph
Humidity: 95%   Direction: 80°E
Pressure: 29.57"   Gusts: 16mph
Location:  43.99°N, 92.23°W
Report Text: K9MN 230253Z AUTO 08007G14KT 040V100 5SM OVC006 02/01 A2957 RMK AO1 T00150008
Loading
Personal Weather Stations






























Interactive Weather Map New forecast layout! Learn more

10-Day Weather Forecast

Advertisements
Track Severe Weather on mobile